sensor_id;sensor_type;location;lat;lon;timestamp;P1;durP1;ratioP1;P2;durP2;ratioP2
36599;SDS011;35385;55.668;37.508;2023-09-08T00:00:31;3.40;;;1.57;;
36599;SDS011;35385;55.668;37.508;2023-09-08T00:01:32;2.37;;;1.60;;
36599;SDS011;35385;55.668;37.508;2023-09-08T00:02:32;3.30;;;1.50;;
36599;SDS011;35385;55.668;37.508;2023-09-08T00:03:33;2.47;;;1.07;;
36599;SDS011;35385;55.668;37.508;2023-09-08T00:04:34;3.73;;;1.53;;
36599;SDS011;35385;55.668;37.508;2023-09-08T00:05:34;4.90;;;1.70;;
36599;SDS011;35385;55.668;37.508;2023-09-08T00:06:35;2.27;;;1.13;;
36599;SDS011;35385;55.668;37.508;2023-09-08T00:07:35;1.33;;;1.13;;
36599;SDS011;35385;55.668;37.508;2023-09-08T00:08:36;3.23;;;1.60;;
36599;SDS011;35385;55.668;37.508;2023-09-08T00:09:36;4.90;;;1.67;;
36599;SDS011;35385;55.668;37.508;2023-09-08T00:10:37;3.67;;;1.47;;
36599;SDS011;35385;55.668;37.508;2023-09-08T00:11:38;4.57;;;1.80;;
36599;SDS011;35385;55.668;37.508;2023-09-08T00:12:38;4.87;;;1.47;;
36599;SDS011;35385;55.668;37.508;2023-09-08T00:13:39;4.63;;;1.38;;
36599;SDS011;35385;55.668;37.508;2023-09-08T00:14:40;2.67;;;1.47;;
36599;SDS011;35385;55.668;37.508;2023-09-08T00:15:40;1.63;;;1.30;;
36599;SDS011;35385;55.668;37.508;2023-09-08T00:16:41;4.40;;;1.70;;
36599;SDS011;35385;55.668;37.508;2023-09-08T00:17:43;3.78;;;1.35;;
36599;SDS011;35385;55.668;37.508;2023-09-08T00:18:44;4.63;;;1.57;;
36599;SDS011;35385;55.668;37.508;2023-09-08T00:19:44;5.20;;;1.40;;
36599;SDS011;35385;55.668;37.508;2023-09-08T00:20:45;2.97;;;1.40;;
36599;SDS011;35385;55.668;37.508;2023-09-08T00:21:46;2.47;;;1.50;;
36599;SDS011;35385;55.668;37.508;2023-09-08T00:22:46;4.33;;;1.80;;
36599;SDS011;35385;55.668;37.508;2023-09-08T00:23:47;6.00;;;1.30;;
36599;SDS011;35385;55.668;37.508;2023-09-08T00:24:47;2.67;;;1.30;;
36599;SDS011;35385;55.668;37.508;2023-09-08T00:25:48;2.33;;;1.60;;
36599;SDS011;35385;55.668;37.508;2023-09-08T00:26:49;3.95;;;1.50;;
36599;SDS011;35385;55.668;37.508;2023-09-08T00:27:50;3.07;;;1.57;;
36599;SDS011;35385;55.668;37.508;2023-09-08T00:28:50;3.07;;;1.53;;
36599;SDS011;35385;55.668;37.508;2023-09-08T00:29:51;5.20;;;1.60;;
36599;SDS011;35385;55.668;37.508;2023-09-08T00:30:51;2.50;;;1.57;;
36599;SDS011;35385;55.668;37.508;2023-09-08T00:31:52;2.87;;;1.43;;
36599;SDS011;35385;55.668;37.508;2023-09-08T00:32:52;3.33;;;1.80;;
36599;SDS011;35385;55.668;37.508;2023-09-08T00:33:53;3.40;;;1.40;;
36599;SDS011;35385;55.668;37.508;2023-09-08T00:34:53;4.33;;;1.70;;
36599;SDS011;35385;55.668;37.508;2023-09-08T00:35:54;4.17;;;1.40;;
36599;SDS011;35385;55.668;37.508;2023-09-08T00:36:57;4.03;;;1.40;;
36599;SDS011;35385;55.668;37.508;2023-09-08T00:37:57;1.57;;;1.20;;
36599;SDS011;35385;55.668;37.508;2023-09-08T00:38:58;5.37;;;1.60;;
36599;SDS011;35385;55.668;37.508;2023-09-08T00:39:59;3.20;;;1.80;;
36599;SDS011;35385;55.668;37.508;2023-09-08T00:40:59;3.27;;;1.30;;
36599;SDS011;35385;55.668;37.508;2023-09-08T00:42:01;3.25;;;1.40;;
36599;SDS011;35385;55.668;37.508;2023-09-08T00:43:02;5.23;;;1.33;;
36599;SDS011;35385;55.668;37.508;2023-09-08T00:44:03;3.97;;;1.43;;
36599;SDS011;35385;55.668;37.508;2023-09-08T00:46:05;4.70;;;1.50;;
36599;SDS011;35385;55.668;37.508;2023-09-08T00:47:07;3.72;;;1.60;;
36599;SDS011;35385;55.668;37.508;2023-09-08T00:48:08;2.77;;;1.53;;
36599;SDS011;35385;55.668;37.508;2023-09-08T00:49:10;4.50;;;1.48;;
36599;SDS011;35385;55.668;37.508;2023-09-08T00:50:12;2.63;;;1.45;;
36599;SDS011;35385;55.668;37.508;2023-09-08T00:51:12;5.00;;;1.50;;
36599;SDS011;35385;55.668;37.508;2023-09-08T00:52:13;5.27;;;1.60;;
36599;SDS011;35385;55.668;37.508;2023-09-08T00:53:14;1.83;;;1.13;;
36599;SDS011;35385;55.668;37.508;2023-09-08T00:54:14;4.77;;;1.40;;
36599;SDS011;35385;55.668;37.508;2023-09-08T00:55:15;2.20;;;1.00;;
36599;SDS011;35385;55.668;37.508;2023-09-08T00:56:16;6.10;;;1.52;;
36599;SDS011;35385;55.668;37.508;2023-09-08T00:57:18;5.15;;;1.52;;
36599;SDS011;35385;55.668;37.508;2023-09-08T00:58:18;2.50;;;1.50;;
36599;SDS011;35385;55.668;37.508;2023-09-08T00:59:19;2.43;;;1.40;;
36599;SDS011;35385;55.668;37.508;2023-09-08T01:00:19;4.23;;;1.33;;
36599;SDS011;35385;55.668;37.508;2023-09-08T01:01:20;2.07;;;1.60;;
36599;SDS011;35385;55.668;37.508;2023-09-08T01:02:20;2.73;;;1.17;;
36599;SDS011;35385;55.668;37.508;2023-09-08T01:03:22;4.45;;;1.52;;
36599;SDS011;35385;55.668;37.508;2023-09-08T01:04:23;5.07;;;1.58;;
36599;SDS011;35385;55.668;37.508;2023-09-08T01:05:24;6.30;;;1.57;;
36599;SDS011;35385;55.668;37.508;2023-09-08T01:06:25;4.47;;;1.90;;
36599;SDS011;35385;55.668;37.508;2023-09-08T01:07:26;5.32;;;1.60;;
36599;SDS011;35385;55.668;37.508;2023-09-08T01:08:30;2.33;;;1.70;;
36599;SDS011;35385;55.668;37.508;2023-09-08T01:09:31;4.13;;;1.33;;
36599;SDS011;35385;55.668;37.508;2023-09-08T01:10:32;3.00;;;1.40;;
36599;SDS011;35385;55.668;37.508;2023-09-08T01:11:33;2.60;;;1.93;;
36599;SDS011;35385;55.668;37.508;2023-09-08T01:12:34;4.18;;;1.70;;
36599;SDS011;35385;55.668;37.508;2023-09-08T01:13:35;3.90;;;1.50;;
36599;SDS011;35385;55.668;37.508;2023-09-08T01:14:35;3.47;;;1.50;;
36599;SDS011;35385;55.668;37.508;2023-09-08T01:15:36;2.60;;;1.60;;
36599;SDS011;35385;55.668;37.508;2023-09-08T01:16:37;4.63;;;1.60;;
36599;SDS011;35385;55.668;37.508;2023-09-08T01:17:38;2.47;;;1.40;;
36599;SDS011;35385;55.668;37.508;2023-09-08T01:18:39;4.45;;;2.17;;
36599;SDS011;35385;55.668;37.508;2023-09-08T01:19:41;2.20;;;1.50;;
36599;SDS011;35385;55.668;37.508;2023-09-08T01:20:56;3.22;;;1.42;;
36599;SDS011;35385;55.668;37.508;2023-09-08T01:24:15;3.90;;;1.70;;
36599;SDS011;35385;55.668;37.508;2023-09-08T01:25:25;10.48;;;2.13;;
36599;SDS011;35385;55.668;37.508;2023-09-08T01:26:30;2.75;;;1.33;;
36599;SDS011;35385;55.668;37.508;2023-09-08T01:27:35;2.72;;;1.60;;
36599;SDS011;35385;55.668;37.508;2023-09-08T01:28:37;4.32;;;1.30;;
36599;SDS011;35385;55.668;37.508;2023-09-08T01:29:41;3.05;;;1.52;;
36599;SDS011;35385;55.668;37.508;2023-09-08T01:30:42;5.43;;;2.25;;
36599;SDS011;35385;55.668;37.508;2023-09-08T01:31:43;5.22;;;2.53;;
36599;SDS011;35385;55.668;37.508;2023-09-08T01:32:44;2.83;;;1.50;;
36599;SDS011;35385;55.668;37.508;2023-09-08T01:33:45;3.53;;;1.33;;
36599;SDS011;35385;55.668;37.508;2023-09-08T01:34:46;3.65;;;1.48;;
36599;SDS011;35385;55.668;37.508;2023-09-08T01:35:47;5.13;;;1.57;;
36599;SDS011;35385;55.668;37.508;2023-09-08T01:36:49;3.53;;;1.20;;
36599;SDS011;35385;55.668;37.508;2023-09-08T01:37:49;5.47;;;1.40;;
36599;SDS011;35385;55.668;37.508;2023-09-08T01:38:50;5.37;;;1.67;;
36599;SDS011;35385;55.668;37.508;2023-09-08T01:39:51;2.43;;;1.20;;
36599;SDS011;35385;55.668;37.508;2023-09-08T01:40:51;2.00;;;1.00;;
36599;SDS011;35385;55.668;37.508;2023-09-08T01:41:52;2.53;;;1.37;;
36599;SDS011;35385;55.668;37.508;2023-09-08T01:42:53;2.15;;;1.23;;
36599;SDS011;35385;55.668;37.508;2023-09-08T01:43:54;4.53;;;1.20;;
36599;SDS011;35385;55.668;37.508;2023-09-08T01:44:54;6.05;;;1.48;;
36599;SDS011;35385;55.668;37.508;2023-09-08T01:45:55;2.00;;;1.03;;
36599;SDS011;35385;55.668;37.508;2023-09-08T01:46:55;2.83;;;1.10;;
36599;SDS011;35385;55.668;37.508;2023-09-08T01:47:57;2.35;;;1.30;;
36599;SDS011;35385;55.668;37.508;2023-09-08T01:48:58;2.53;;;1.47;;
36599;SDS011;35385;55.668;37.508;2023-09-08T01:49:58;2.57;;;1.17;;
36599;SDS011;35385;55.668;37.508;2023-09-08T01:50:59;3.83;;;1.80;;
36599;SDS011;35385;55.668;37.508;2023-09-08T01:52:00;4.03;;;1.43;;
36599;SDS011;35385;55.668;37.508;2023-09-08T01:53:00;2.53;;;1.07;;
36599;SDS011;35385;55.668;37.508;2023-09-08T01:54:01;5.50;;;1.37;;
36599;SDS011;35385;55.668;37.508;2023-09-08T01:55:01;3.23;;;1.50;;
36599;SDS011;35385;55.668;37.508;2023-09-08T01:56:05;2.80;;;1.40;;
36599;SDS011;35385;55.668;37.508;2023-09-08T01:57:06;1.73;;;1.27;;
36599;SDS011;35385;55.668;37.508;2023-09-08T01:58:06;3.27;;;1.10;;
36599;SDS011;35385;55.668;37.508;2023-09-08T01:59:07;4.27;;;1.33;;
36599;SDS011;35385;55.668;37.508;2023-09-08T02:00:08;3.17;;;1.37;;
36599;SDS011;35385;55.668;37.508;2023-09-08T02:01:09;2.72;;;1.17;;
36599;SDS011;35385;55.668;37.508;2023-09-08T02:02:10;3.83;;;1.20;;
36599;SDS011;35385;55.668;37.508;2023-09-08T02:03:11;4.90;;;1.63;;
36599;SDS011;35385;55.668;37.508;2023-09-08T02:04:12;3.50;;;1.20;;
36599;SDS011;35385;55.668;37.508;2023-09-08T02:05:13;2.80;;;1.23;;
36599;SDS011;35385;55.668;37.508;2023-09-08T02:06:14;3.50;;;1.35;;
36599;SDS011;35385;55.668;37.508;2023-09-08T02:07:15;3.03;;;1.20;;
36599;SDS011;35385;55.668;37.508;2023-09-08T02:08:15;1.43;;;0.90;;
36599;SDS011;35385;55.668;37.508;2023-09-08T02:09:16;2.33;;;1.20;;
36599;SDS011;35385;55.668;37.508;2023-09-08T02:10:16;2.67;;;1.63;;
36599;SDS011;35385;55.668;37.508;2023-09-08T02:11:18;2.58;;;1.30;;
36599;SDS011;35385;55.668;37.508;2023-09-08T02:12:18;4.40;;;1.30;;
36599;SDS011;35385;55.668;37.508;2023-09-08T02:13:19;6.60;;;1.67;;
36599;SDS011;35385;55.668;37.508;2023-09-08T02:14:20;1.83;;;1.13;;
36599;SDS011;35385;55.668;37.508;2023-09-08T02:15:20;2.53;;;1.50;;
36599;SDS011;35385;55.668;37.508;2023-09-08T02:16:21;11.90;;;1.70;;
36599;SDS011;35385;55.668;37.508;2023-09-08T02:17:22;3.60;;;1.17;;
36599;SDS011;35385;55.668;37.508;2023-09-08T02:18:22;4.87;;;1.50;;
36599;SDS011;35385;55.668;37.508;2023-09-08T02:19:24;5.68;;;1.23;;
36599;SDS011;35385;55.668;37.508;2023-09-08T02:20:25;1.50;;;1.20;;
36599;SDS011;35385;55.668;37.508;2023-09-08T02:21:25;3.37;;;1.60;;
36599;SDS011;35385;55.668;37.508;2023-09-08T02:22:26;2.07;;;1.37;;
36599;SDS011;35385;55.668;37.508;2023-09-08T02:23:27;2.40;;;1.40;;
36599;SDS011;35385;55.668;37.508;2023-09-08T02:24:28;2.80;;;1.20;;
36599;SDS011;35385;55.668;37.508;2023-09-08T02:25:28;1.70;;;1.00;;
36599;SDS011;35385;55.668;37.508;2023-09-08T02:26:29;2.73;;;1.13;;
36599;SDS011;35385;55.668;37.508;2023-09-08T02:27:32;2.45;;;1.27;;
36599;SDS011;35385;55.668;37.508;2023-09-08T02:28:32;2.27;;;1.10;;
36599;SDS011;35385;55.668;37.508;2023-09-08T02:29:33;2.27;;;0.93;;
36599;SDS011;35385;55.668;37.508;2023-09-08T02:30:33;2.70;;;1.10;;
36599;SDS011;35385;55.668;37.508;2023-09-08T02:31:34;3.13;;;1.47;;
36599;SDS011;35385;55.668;37.508;2023-09-08T02:32:35;4.03;;;1.10;;
36599;SDS011;35385;55.668;37.508;2023-09-08T02:33:35;3.00;;;1.03;;
36599;SDS011;35385;55.668;37.508;2023-09-08T02:34:36;3.83;;;1.20;;
36599;SDS011;35385;55.668;37.508;2023-09-08T02:35:37;2.97;;;1.20;;
36599;SDS011;35385;55.668;37.508;2023-09-08T02:36:41;3.55;;;1.60;;
36599;SDS011;35385;55.668;37.508;2023-09-08T02:37:41;5.43;;;1.30;;
36599;SDS011;35385;55.668;37.508;2023-09-08T02:38:42;1.60;;;1.30;;
36599;SDS011;35385;55.668;37.508;2023-09-08T02:39:42;3.10;;;1.00;;
36599;SDS011;35385;55.668;37.508;2023-09-08T02:40:43;1.53;;;1.10;;
36599;SDS011;35385;55.668;37.508;2023-09-08T02:41:43;2.60;;;1.50;;
36599;SDS011;35385;55.668;37.508;2023-09-08T02:42:44;2.23;;;1.30;;
36599;SDS011;35385;55.668;37.508;2023-09-08T02:43:45;2.03;;;1.13;;
36599;SDS011;35385;55.668;37.508;2023-09-08T02:44:45;4.03;;;1.50;;
36599;SDS011;35385;55.668;37.508;2023-09-08T02:45:46;2.90;;;1.73;;
36599;SDS011;35385;55.668;37.508;2023-09-08T02:46:47;2.63;;;1.40;;
36599;SDS011;35385;55.668;37.508;2023-09-08T02:47:48;4.10;;;1.50;;
36599;SDS011;35385;55.668;37.508;2023-09-08T02:48:49;6.33;;;1.60;;
36599;SDS011;35385;55.668;37.508;2023-09-08T02:49:49;3.60;;;2.40;;
36599;SDS011;35385;55.668;37.508;2023-09-08T02:50:50;6.47;;;2.70;;
36599;SDS011;35385;55.668;37.508;2023-09-08T02:51:50;4.03;;;2.17;;
36599;SDS011;35385;55.668;37.508;2023-09-08T02:52:51;3.23;;;2.43;;
36599;SDS011;35385;55.668;37.508;2023-09-08T02:53:52;4.10;;;2.80;;
36599;SDS011;35385;55.668;37.508;2023-09-08T02:54:53;7.50;;;3.27;;
36599;SDS011;35385;55.668;37.508;2023-09-08T02:55:53;3.73;;;2.90;;
36599;SDS011;35385;55.668;37.508;2023-09-08T02:56:57;4.20;;;2.88;;
36599;SDS011;35385;55.668;37.508;2023-09-08T02:57:58;4.73;;;2.83;;
36599;SDS011;35385;55.668;37.508;2023-09-08T02:58:58;3.67;;;2.77;;
36599;SDS011;35385;55.668;37.508;2023-09-08T02:59:59;5.53;;;3.10;;
36599;SDS011;35385;55.668;37.508;2023-09-08T03:01:09;4.23;;;3.13;;
36599;SDS011;35385;55.668;37.508;2023-09-08T03:02:14;5.20;;;2.90;;
36599;SDS011;35385;55.668;37.508;2023-09-08T03:03:14;6.47;;;2.77;;
36599;SDS011;35385;55.668;37.508;2023-09-08T03:04:15;4.87;;;2.60;;
36599;SDS011;35385;55.668;37.508;2023-09-08T03:05:16;4.33;;;2.90;;
36599;SDS011;35385;55.668;37.508;2023-09-08T03:06:18;3.73;;;2.70;;
36599;SDS011;35385;55.668;37.508;2023-09-08T03:07:20;3.28;;;2.45;;
36599;SDS011;35385;55.668;37.508;2023-09-08T03:08:22;3.70;;;2.50;;
36599;SDS011;35385;55.668;37.508;2023-09-08T03:09:23;3.60;;;2.38;;
36599;SDS011;35385;55.668;37.508;2023-09-08T03:10:24;3.73;;;2.37;;
36599;SDS011;35385;55.668;37.508;2023-09-08T03:11:24;3.40;;;2.13;;
36599;SDS011;35385;55.668;37.508;2023-09-08T03:12:25;2.90;;;2.17;;
36599;SDS011;35385;55.668;37.508;2023-09-08T03:13:25;3.07;;;1.97;;
36599;SDS011;35385;55.668;37.508;2023-09-08T03:14:26;2.77;;;1.80;;
36599;SDS011;35385;55.668;37.508;2023-09-08T03:15:26;3.60;;;1.93;;
36599;SDS011;35385;55.668;37.508;2023-09-08T03:16:28;4.22;;;1.92;;
36599;SDS011;35385;55.668;37.508;2023-09-08T03:17:29;3.30;;;1.87;;
36599;SDS011;35385;55.668;37.508;2023-09-08T03:18:29;3.93;;;1.90;;
36599;SDS011;35385;55.668;37.508;2023-09-08T03:19:30;3.87;;;1.80;;
36599;SDS011;35385;55.668;37.508;2023-09-08T03:20:31;4.50;;;2.13;;
36599;SDS011;35385;55.668;37.508;2023-09-08T03:21:31;3.37;;;1.70;;
36599;SDS011;35385;55.668;37.508;2023-09-08T03:22:32;2.63;;;1.77;;
36599;SDS011;35385;55.668;37.508;2023-09-08T03:23:32;3.10;;;1.70;;
36599;SDS011;35385;55.668;37.508;2023-09-08T03:24:33;2.03;;;1.40;;
36599;SDS011;35385;55.668;37.508;2023-09-08T03:25:33;2.83;;;1.47;;
36599;SDS011;35385;55.668;37.508;2023-09-08T03:26:34;3.90;;;1.57;;
36599;SDS011;35385;55.668;37.508;2023-09-08T03:27:35;3.07;;;1.67;;
36599;SDS011;35385;55.668;37.508;2023-09-08T03:28:36;3.03;;;1.67;;
36599;SDS011;35385;55.668;37.508;2023-09-08T03:29:39;2.03;;;1.42;;
36599;SDS011;35385;55.668;37.508;2023-09-08T03:30:39;1.70;;;1.20;;
36599;SDS011;35385;55.668;37.508;2023-09-08T03:31:40;2.60;;;1.60;;
36599;SDS011;35385;55.668;37.508;2023-09-08T03:32:41;2.90;;;1.30;;
36599;SDS011;35385;55.668;37.508;2023-09-08T03:33:41;3.43;;;1.33;;
36599;SDS011;35385;55.668;37.508;2023-09-08T03:34:42;1.73;;;1.42;;
36599;SDS011;35385;55.668;37.508;2023-09-08T03:35:43;3.77;;;1.20;;
36599;SDS011;35385;55.668;37.508;2023-09-08T03:36:44;5.10;;;1.77;;
36599;SDS011;35385;55.668;37.508;2023-09-08T03:37:44;3.27;;;1.40;;
36599;SDS011;35385;55.668;37.508;2023-09-08T03:38:45;2.07;;;1.33;;
36599;SDS011;35385;55.668;37.508;2023-09-08T03:39:46;2.30;;;1.30;;
36599;SDS011;35385;55.668;37.508;2023-09-08T03:40:46;4.00;;;1.40;;
36599;SDS011;35385;55.668;37.508;2023-09-08T03:41:47;2.10;;;1.30;;
36599;SDS011;35385;55.668;37.508;2023-09-08T03:42:47;4.13;;;1.30;;
36599;SDS011;35385;55.668;37.508;2023-09-08T03:43:48;3.30;;;1.07;;
36599;SDS011;35385;55.668;37.508;2023-09-08T03:44:49;3.50;;;1.35;;
36599;SDS011;35385;55.668;37.508;2023-09-08T03:45:49;3.80;;;1.30;;
36599;SDS011;35385;55.668;37.508;2023-09-08T03:46:50;3.83;;;1.20;;
36599;SDS011;35385;55.668;37.508;2023-09-08T03:47:51;2.05;;;1.10;;
36599;SDS011;35385;55.668;37.508;2023-09-08T03:48:51;7.63;;;1.57;;
36599;SDS011;35385;55.668;37.508;2023-09-08T03:49:54;2.42;;;1.38;;
36599;SDS011;35385;55.668;37.508;2023-09-08T03:50:55;3.47;;;1.33;;
36599;SDS011;35385;55.668;37.508;2023-09-08T03:51:55;2.30;;;1.30;;
36599;SDS011;35385;55.668;37.508;2023-09-08T03:52:56;3.47;;;1.03;;
36599;SDS011;35385;55.668;37.508;2023-09-08T03:53:56;3.50;;;1.20;;
36599;SDS011;35385;55.668;37.508;2023-09-08T03:54:57;4.30;;;1.97;;
36599;SDS011;35385;55.668;37.508;2023-09-08T03:55:58;2.45;;;1.10;;
36599;SDS011;35385;55.668;37.508;2023-09-08T03:56:59;1.50;;;1.00;;
36599;SDS011;35385;55.668;37.508;2023-09-08T03:57:59;3.00;;;1.00;;
36599;SDS011;35385;55.668;37.508;2023-09-08T03:59:00;3.20;;;1.43;;
36599;SDS011;35385;55.668;37.508;2023-09-08T04:00:00;5.03;;;1.10;;
36599;SDS011;35385;55.668;37.508;2023-09-08T04:01:01;3.20;;;1.30;;
36599;SDS011;35385;55.668;37.508;2023-09-08T04:02:02;2.20;;;1.40;;
36599;SDS011;35385;55.668;37.508;2023-09-08T04:03:03;2.07;;;1.30;;
36599;SDS011;35385;55.668;37.508;2023-09-08T04:04:04;4.35;;;1.40;;
36599;SDS011;35385;55.668;37.508;2023-09-08T04:05:04;3.00;;;1.40;;
36599;SDS011;35385;55.668;37.508;2023-09-08T04:06:05;3.63;;;1.40;;
36599;SDS011;35385;55.668;37.508;2023-09-08T04:07:06;2.60;;;1.37;;
36599;SDS011;35385;55.668;37.508;2023-09-08T04:08:06;4.17;;;1.73;;
36599;SDS011;35385;55.668;37.508;2023-09-08T04:09:07;1.17;;;0.87;;
36599;SDS011;35385;55.668;37.508;2023-09-08T04:10:08;6.07;;;1.33;;
36599;SDS011;35385;55.668;37.508;2023-09-08T04:11:08;3.50;;;1.20;;
36599;SDS011;35385;55.668;37.508;2023-09-08T04:12:09;3.07;;;1.20;;
36599;SDS011;35385;55.668;37.508;2023-09-08T04:13:11;4.55;;;1.17;;
36599;SDS011;35385;55.668;37.508;2023-09-08T04:14:11;4.63;;;1.30;;
36599;SDS011;35385;55.668;37.508;2023-09-08T04:15:12;4.57;;;1.27;;
36599;SDS011;35385;55.668;37.508;2023-09-08T04:16:12;2.40;;;1.40;;
36599;SDS011;35385;55.668;37.508;2023-09-08T04:17:13;3.03;;;1.30;;
36599;SDS011;35385;55.668;37.508;2023-09-08T04:18:13;3.70;;;1.33;;
36599;SDS011;35385;55.668;37.508;2023-09-08T04:19:14;2.97;;;1.00;;
36599;SDS011;35385;55.668;37.508;2023-09-08T04:20:15;3.30;;;1.40;;
36599;SDS011;35385;55.668;37.508;2023-09-08T04:21:15;2.37;;;1.33;;
36599;SDS011;35385;55.668;37.508;2023-09-08T04:22:16;2.60;;;1.30;;
36599;SDS011;35385;55.668;37.508;2023-09-08T04:23:16;4.87;;;1.30;;
36599;SDS011;35385;55.668;37.508;2023-09-08T04:24:17;2.93;;;1.47;;
36599;SDS011;35385;55.668;37.508;2023-09-08T04:25:17;4.47;;;1.30;;
36599;SDS011;35385;55.668;37.508;2023-09-08T04:27:20;1.88;;;1.38;;
36599;SDS011;35385;55.668;37.508;2023-09-08T04:28:20;2.20;;;1.20;;
36599;SDS011;35385;55.668;37.508;2023-09-08T04:29:21;2.53;;;1.40;;
36599;SDS011;35385;55.668;37.508;2023-09-08T04:30:21;4.20;;;1.27;;
36599;SDS011;35385;55.668;37.508;2023-09-08T04:31:22;2.53;;;1.13;;
36599;SDS011;35385;55.668;37.508;2023-09-08T04:32:23;2.47;;;1.40;;
36599;SDS011;35385;55.668;37.508;2023-09-08T04:33:24;3.43;;;1.33;;
36599;SDS011;35385;55.668;37.508;2023-09-08T04:34:24;2.90;;;1.30;;
36599;SDS011;35385;55.668;37.508;2023-09-08T04:35:25;4.10;;;1.20;;
36599;SDS011;35385;55.668;37.508;2023-09-08T04:36:25;6.23;;;1.50;;
36599;SDS011;35385;55.668;37.508;2023-09-08T04:37:26;3.30;;;1.37;;
36599;SDS011;35385;55.668;37.508;2023-09-08T04:38:26;4.00;;;1.50;;
36599;SDS011;35385;55.668;37.508;2023-09-08T04:39:27;4.33;;;1.60;;
36599;SDS011;35385;55.668;37.508;2023-09-08T04:40:28;3.17;;;1.20;;
36599;SDS011;35385;55.668;37.508;2023-09-08T04:41:28;5.22;;;1.38;;
36599;SDS011;35385;55.668;37.508;2023-09-08T04:42:29;3.67;;;1.20;;
36599;SDS011;35385;55.668;37.508;2023-09-08T04:43:30;3.83;;;1.67;;
36599;SDS011;35385;55.668;37.508;2023-09-08T04:44:31;5.23;;;1.50;;
36599;SDS011;35385;55.668;37.508;2023-09-08T04:45:32;3.33;;;1.30;;
36599;SDS011;35385;55.668;37.508;2023-09-08T04:46:32;2.73;;;1.40;;
36599;SDS011;35385;55.668;37.508;2023-09-08T04:47:34;3.95;;;1.40;;
36599;SDS011;35385;55.668;37.508;2023-09-08T04:48:35;2.53;;;1.27;;
36599;SDS011;35385;55.668;37.508;2023-09-08T04:49:36;3.53;;;1.30;;
36599;SDS011;35385;55.668;37.508;2023-09-08T04:50:37;2.45;;;1.35;;
36599;SDS011;35385;55.668;37.508;2023-09-08T04:51:38;3.83;;;1.27;;
36599;SDS011;35385;55.668;37.508;2023-09-08T04:52:38;2.87;;;1.20;;
36599;SDS011;35385;55.668;37.508;2023-09-08T04:53:39;1.80;;;1.10;;
36599;SDS011;35385;55.668;37.508;2023-09-08T04:54:39;2.07;;;1.10;;
36599;SDS011;35385;55.668;37.508;2023-09-08T04:55:40;2.13;;;1.00;;
36599;SDS011;35385;55.668;37.508;2023-09-08T04:56:41;2.27;;;1.20;;
36599;SDS011;35385;55.668;37.508;2023-09-08T04:57:42;3.07;;;1.63;;
36599;SDS011;35385;55.668;37.508;2023-09-08T04:58:42;2.90;;;1.10;;
36599;SDS011;35385;55.668;37.508;2023-09-08T04:59:43;2.00;;;1.27;;
36599;SDS011;35385;55.668;37.508;2023-09-08T05:00:43;5.47;;;1.50;;
36599;SDS011;35385;55.668;37.508;2023-09-08T05:01:44;3.23;;;1.43;;
36599;SDS011;35385;55.668;37.508;2023-09-08T05:02:44;3.80;;;1.23;;
36599;SDS011;35385;55.668;37.508;2023-09-08T05:03:45;3.00;;;1.50;;
36599;SDS011;35385;55.668;37.508;2023-09-08T05:04:46;1.80;;;1.17;;
36599;SDS011;35385;55.668;37.508;2023-09-08T05:05:46;2.27;;;0.93;;
36599;SDS011;35385;55.668;37.508;2023-09-08T05:06:47;1.93;;;1.13;;
36599;SDS011;35385;55.668;37.508;2023-09-08T05:07:47;4.87;;;1.23;;
36599;SDS011;35385;55.668;37.508;2023-09-08T05:08:48;2.20;;;1.30;;
36599;SDS011;35385;55.668;37.508;2023-09-08T05:09:49;2.63;;;1.33;;
36599;SDS011;35385;55.668;37.508;2023-09-08T05:10:50;2.50;;;1.53;;
36599;SDS011;35385;55.668;37.508;2023-09-08T05:11:50;3.10;;;1.20;;
36599;SDS011;35385;55.668;37.508;2023-09-08T05:12:51;2.53;;;1.50;;
36599;SDS011;35385;55.668;37.508;2023-09-08T05:13:52;3.40;;;1.30;;
36599;SDS011;35385;55.668;37.508;2023-09-08T05:14:52;3.93;;;1.30;;
36599;SDS011;35385;55.668;37.508;2023-09-08T05:15:56;2.58;;;1.20;;
36599;SDS011;35385;55.668;37.508;2023-09-08T05:17:00;2.78;;;1.38;;
36599;SDS011;35385;55.668;37.508;2023-09-08T05:18:01;3.33;;;1.10;;
36599;SDS011;35385;55.668;37.508;2023-09-08T05:19:02;5.17;;;1.30;;
36599;SDS011;35385;55.668;37.508;2023-09-08T05:20:05;2.65;;;1.35;;
36599;SDS011;35385;55.668;37.508;2023-09-08T05:21:07;3.95;;;1.50;;
36599;SDS011;35385;55.668;37.508;2023-09-08T05:22:08;9.57;;;1.42;;
36599;SDS011;35385;55.668;37.508;2023-09-08T05:23:08;4.90;;;1.47;;
36599;SDS011;35385;55.668;37.508;2023-09-08T05:24:09;2.23;;;0.97;;
36599;SDS011;35385;55.668;37.508;2023-09-08T05:25:09;2.90;;;1.07;;
36599;SDS011;35385;55.668;37.508;2023-09-08T05:26:10;4.03;;;1.10;;
36599;SDS011;35385;55.668;37.508;2023-09-08T05:27:11;2.87;;;1.03;;
36599;SDS011;35385;55.668;37.508;2023-09-08T05:28:11;1.93;;;1.07;;
36599;SDS011;35385;55.668;37.508;2023-09-08T05:29:12;2.97;;;1.00;;
36599;SDS011;35385;55.668;37.508;2023-09-08T05:30:13;15.70;;;1.37;;
36599;SDS011;35385;55.668;37.508;2023-09-08T05:31:14;2.37;;;1.10;;
36599;SDS011;35385;55.668;37.508;2023-09-08T05:32:14;2.87;;;1.10;;
36599;SDS011;35385;55.668;37.508;2023-09-08T05:33:15;3.10;;;1.00;;
36599;SDS011;35385;55.668;37.508;2023-09-08T05:34:15;2.20;;;1.00;;
36599;SDS011;35385;55.668;37.508;2023-09-08T05:35:16;1.90;;;0.90;;
36599;SDS011;35385;55.668;37.508;2023-09-08T05:36:17;3.97;;;1.10;;
36599;SDS011;35385;55.668;37.508;2023-09-08T05:37:17;2.63;;;1.00;;
36599;SDS011;35385;55.668;37.508;2023-09-08T05:38:18;3.60;;;0.90;;
36599;SDS011;35385;55.668;37.508;2023-09-08T05:39:18;1.63;;;0.87;;
36599;SDS011;35385;55.668;37.508;2023-09-08T05:40:19;2.17;;;0.90;;
36599;SDS011;35385;55.668;37.508;2023-09-08T05:41:24;1.65;;;1.15;;
36599;SDS011;35385;55.668;37.508;2023-09-08T05:42:24;4.43;;;1.30;;
36599;SDS011;35385;55.668;37.508;2023-09-08T05:43:25;4.77;;;1.20;;
36599;SDS011;35385;55.668;37.508;2023-09-08T05:44:25;4.27;;;1.03;;
36599;SDS011;35385;55.668;37.508;2023-09-08T05:45:26;2.33;;;1.17;;
36599;SDS011;35385;55.668;37.508;2023-09-08T05:46:27;2.07;;;1.07;;
36599;SDS011;35385;55.668;37.508;2023-09-08T05:47:27;2.60;;;1.30;;
36599;SDS011;35385;55.668;37.508;2023-09-08T05:48:28;2.33;;;1.10;;
36599;SDS011;35385;55.668;37.508;2023-09-08T05:49:28;2.97;;;1.20;;
36599;SDS011;35385;55.668;37.508;2023-09-08T05:50:29;2.10;;;0.97;;
36599;SDS011;35385;55.668;37.508;2023-09-08T05:51:30;2.50;;;1.00;;
36599;SDS011;35385;55.668;37.508;2023-09-08T05:52:31;2.70;;;1.10;;
36599;SDS011;35385;55.668;37.508;2023-09-08T05:53:33;4.93;;;1.33;;
36599;SDS011;35385;55.668;37.508;2023-09-08T05:54:35;2.55;;;1.13;;
36599;SDS011;35385;55.668;37.508;2023-09-08T05:55:36;2.03;;;1.27;;
36599;SDS011;35385;55.668;37.508;2023-09-08T05:56:37;3.53;;;1.23;;
36599;SDS011;35385;55.668;37.508;2023-09-08T05:57:38;2.25;;;1.38;;
36599;SDS011;35385;55.668;37.508;2023-09-08T05:58:39;3.80;;;1.17;;
36599;SDS011;35385;55.668;37.508;2023-09-08T05:59:39;3.83;;;1.07;;
36599;SDS011;35385;55.668;37.508;2023-09-08T06:00:40;5.23;;;1.40;;
36599;SDS011;35385;55.668;37.508;2023-09-08T06:01:41;5.18;;;1.75;;
36599;SDS011;35385;55.668;37.508;2023-09-08T06:02:42;3.83;;;1.33;;
36599;SDS011;35385;55.668;37.508;2023-09-08T06:03:42;2.43;;;1.10;;
36599;SDS011;35385;55.668;37.508;2023-09-08T06:04:43;2.50;;;1.47;;
36599;SDS011;35385;55.668;37.508;2023-09-08T06:05:44;1.98;;;1.15;;